sensor_id;sensor_type;location;lat;lon;timestamp;P1;durP1;ratioP1;P2;durP2;ratioP2
26822;SDS011;14852;51.910;8.878;2023-04-24T00:00:10;1.92;;;0.63;;
26822;SDS011;14852;51.910;8.878;2023-04-24T00:02:41;1.10;;;0.90;;
26822;SDS011;14852;51.910;8.878;2023-04-24T00:05:11;0.70;;;0.70;;
26822;SDS011;14852;51.910;8.878;2023-04-24T00:07:38;1.58;;;0.63;;
26822;SDS011;14852;51.910;8.878;2023-04-24T00:10:05;0.88;;;0.77;;
26822;SDS011;14852;51.910;8.878;2023-04-24T00:12:32;0.30;;;0.30;;
26822;SDS011;14852;51.910;8.878;2023-04-24T00:14:58;2.22;;;0.70;;
26822;SDS011;14852;51.910;8.878;2023-04-24T00:17:24;0.70;;;0.70;;
26822;SDS011;14852;51.910;8.878;2023-04-24T00:19:50;1.75;;;0.88;;
26822;SDS011;14852;51.910;8.878;2023-04-24T00:22:16;0.52;;;0.47;;
26822;SDS011;14852;51.910;8.878;2023-04-24T00:24:42;1.45;;;0.55;;
26822;SDS011;14852;51.910;8.878;2023-04-24T00:27:08;0.43;;;0.43;;
26822;SDS011;14852;51.910;8.878;2023-04-24T00:29:34;0.63;;;0.60;;
26822;SDS011;14852;51.910;8.878;2023-04-24T00:32:00;0.70;;;0.70;;
26822;SDS011;14852;51.910;8.878;2023-04-24T00:34:25;0.40;;;0.40;;
26822;SDS011;14852;51.910;8.878;2023-04-24T00:36:51;0.50;;;0.50;;
26822;SDS011;14852;51.910;8.878;2023-04-24T00:39:20;0.77;;;0.77;;
26822;SDS011;14852;51.910;8.878;2023-04-24T00:41:47;0.50;;;0.50;;
26822;SDS011;14852;51.910;8.878;2023-04-24T00:44:14;0.40;;;0.40;;
26822;SDS011;14852;51.910;8.878;2023-04-24T00:46:40;0.50;;;0.50;;
26822;SDS011;14852;51.910;8.878;2023-04-24T00:49:07;0.55;;;0.52;;
26822;SDS011;14852;51.910;8.878;2023-04-24T00:51:32;1.27;;;0.80;;
26822;SDS011;14852;51.910;8.878;2023-04-24T00:53:59;2.28;;;0.77;;
26822;SDS011;14852;51.910;8.878;2023-04-24T00:56:26;1.33;;;0.75;;
26822;SDS011;14852;51.910;8.878;2023-04-24T00:58:52;1.60;;;0.68;;
26822;SDS011;14852;51.910;8.878;2023-04-24T01:01:19;0.80;;;0.60;;
26822;SDS011;14852;51.910;8.878;2023-04-24T01:03:51;1.10;;;0.70;;
26822;SDS011;14852;51.910;8.878;2023-04-24T01:06:18;0.30;;;0.30;;
26822;SDS011;14852;51.910;8.878;2023-04-24T01:08:45;0.50;;;0.40;;
26822;SDS011;14852;51.910;8.878;2023-04-24T01:11:12;1.63;;;0.90;;
26822;SDS011;14852;51.910;8.878;2023-04-24T01:13:39;3.63;;;1.10;;
26822;SDS011;14852;51.910;8.878;2023-04-24T01:16:05;0.68;;;0.68;;
26822;SDS011;14852;51.910;8.878;2023-04-24T01:18:33;0.50;;;0.50;;
26822;SDS011;14852;51.910;8.878;2023-04-24T01:20:59;0.90;;;0.55;;
26822;SDS011;14852;51.910;8.878;2023-04-24T01:23:29;1.20;;;0.50;;
26822;SDS011;14852;51.910;8.878;2023-04-24T01:25:55;1.17;;;0.70;;
26822;SDS011;14852;51.910;8.878;2023-04-24T01:28:21;0.90;;;0.60;;
26822;SDS011;14852;51.910;8.878;2023-04-24T01:30:47;0.50;;;0.50;;
26822;SDS011;14852;51.910;8.878;2023-04-24T01:33:13;0.80;;;0.80;;
26822;SDS011;14852;51.910;8.878;2023-04-24T01:35:39;0.50;;;0.50;;
26822;SDS011;14852;51.910;8.878;2023-04-24T01:38:05;1.65;;;0.80;;
26822;SDS011;14852;51.910;8.878;2023-04-24T01:40:32;0.93;;;0.75;;
26822;SDS011;14852;51.910;8.878;2023-04-24T01:42:58;0.90;;;0.90;;
26822;SDS011;14852;51.910;8.878;2023-04-24T01:45:24;2.15;;;0.70;;
26822;SDS011;14852;51.910;8.878;2023-04-24T01:47:50;0.95;;;0.50;;
26822;SDS011;14852;51.910;8.878;2023-04-24T01:50:16;0.80;;;0.80;;
26822;SDS011;14852;51.910;8.878;2023-04-24T01:52:42;0.88;;;0.82;;
26822;SDS011;14852;51.910;8.878;2023-04-24T01:55:08;0.90;;;0.60;;
26822;SDS011;14852;51.910;8.878;2023-04-24T01:57:35;0.73;;;0.60;;
26822;SDS011;14852;51.910;8.878;2023-04-24T02:00:01;0.90;;;0.70;;
26822;SDS011;14852;51.910;8.878;2023-04-24T02:02:39;0.50;;;0.50;;
26822;SDS011;14852;51.910;8.878;2023-04-24T02:05:06;0.55;;;0.50;;
26822;SDS011;14852;51.910;8.878;2023-04-24T02:07:35;0.93;;;0.47;;
26822;SDS011;14852;51.910;8.878;2023-04-24T02:10:01;0.60;;;0.60;;
26822;SDS011;14852;51.910;8.878;2023-04-24T02:12:29;0.52;;;0.52;;
26822;SDS011;14852;51.910;8.878;2023-04-24T02:14:55;0.70;;;0.70;;
26822;SDS011;14852;51.910;8.878;2023-04-24T02:17:20;0.40;;;0.40;;
26822;SDS011;14852;51.910;8.878;2023-04-24T02:19:46;0.38;;;0.38;;
26822;SDS011;14852;51.910;8.878;2023-04-24T02:22:12;0.90;;;0.90;;
26822;SDS011;14852;51.910;8.878;2023-04-24T02:24:38;0.50;;;0.50;;
26822;SDS011;14852;51.910;8.878;2023-04-24T02:27:05;0.55;;;0.50;;
26822;SDS011;14852;51.910;8.878;2023-04-24T02:29:31;0.70;;;0.70;;
26822;SDS011;14852;51.910;8.878;2023-04-24T02:31:57;1.00;;;0.52;;
26822;SDS011;14852;51.910;8.878;2023-04-24T02:34:23;0.82;;;0.60;;
26822;SDS011;14852;51.910;8.878;2023-04-24T02:36:49;1.15;;;0.50;;
26822;SDS011;14852;51.910;8.878;2023-04-24T02:39:15;0.50;;;0.50;;
26822;SDS011;14852;51.910;8.878;2023-04-24T02:41:43;0.77;;;0.77;;
26822;SDS011;14852;51.910;8.878;2023-04-24T02:44:09;0.82;;;0.73;;
26822;SDS011;14852;51.910;8.878;2023-04-24T02:46:35;0.63;;;0.63;;
26822;SDS011;14852;51.910;8.878;2023-04-24T02:49:01;2.28;;;0.93;;
26822;SDS011;14852;51.910;8.878;2023-04-24T02:51:27;0.75;;;0.57;;
26822;SDS011;14852;51.910;8.878;2023-04-24T02:53:54;4.10;;;0.70;;
26822;SDS011;14852;51.910;8.878;2023-04-24T02:56:20;0.68;;;0.60;;
26822;SDS011;14852;51.910;8.878;2023-04-24T02:58:46;0.52;;;0.52;;
26822;SDS011;14852;51.910;8.878;2023-04-24T03:01:12;0.90;;;0.77;;
26822;SDS011;14852;51.910;8.878;2023-04-24T03:03:38;0.93;;;0.70;;
26822;SDS011;14852;51.910;8.878;2023-04-24T03:06:04;1.35;;;0.70;;
26822;SDS011;14852;51.910;8.878;2023-04-24T03:08:31;0.70;;;0.60;;
26822;SDS011;14852;51.910;8.878;2023-04-24T03:10:57;0.50;;;0.50;;
26822;SDS011;14852;51.910;8.878;2023-04-24T03:13:23;0.57;;;0.57;;
26822;SDS011;14852;51.910;8.878;2023-04-24T03:15:49;1.20;;;0.80;;
26822;SDS011;14852;51.910;8.878;2023-04-24T03:18:16;1.65;;;1.25;;
26822;SDS011;14852;51.910;8.878;2023-04-24T03:20:41;1.77;;;0.63;;
26822;SDS011;14852;51.910;8.878;2023-04-24T03:23:07;0.73;;;0.60;;
26822;SDS011;14852;51.910;8.878;2023-04-24T03:25:34;0.90;;;0.70;;
26822;SDS011;14852;51.910;8.878;2023-04-24T03:28:01;0.90;;;0.70;;
26822;SDS011;14852;51.910;8.878;2023-04-24T03:30:39;1.50;;;0.88;;
26822;SDS011;14852;51.910;8.878;2023-04-24T03:33:07;0.73;;;0.73;;
26822;SDS011;14852;51.910;8.878;2023-04-24T03:35:36;0.85;;;0.77;;
26822;SDS011;14852;51.910;8.878;2023-04-24T03:38:07;0.60;;;0.60;;
26822;SDS011;14852;51.910;8.878;2023-04-24T03:40:51;1.38;;;0.80;;
26822;SDS011;14852;51.910;8.878;2023-04-24T03:43:40;1.15;;;0.63;;
26822;SDS011;14852;51.910;8.878;2023-04-24T03:46:06;0.88;;;0.70;;
26822;SDS011;14852;51.910;8.878;2023-04-24T03:48:37;0.93;;;0.80;;
26822;SDS011;14852;51.910;8.878;2023-04-24T03:51:04;0.63;;;0.60;;
26822;SDS011;14852;51.910;8.878;2023-04-24T03:53:32;1.00;;;0.90;;
26822;SDS011;14852;51.910;8.878;2023-04-24T03:55:58;1.27;;;0.98;;
26822;SDS011;14852;51.910;8.878;2023-04-24T03:58:24;1.75;;;1.30;;
26822;SDS011;14852;51.910;8.878;2023-04-24T04:00:52;0.98;;;0.70;;
26822;SDS011;14852;51.910;8.878;2023-04-24T04:03:41;1.75;;;1.00;;
26822;SDS011;14852;51.910;8.878;2023-04-24T04:06:06;0.95;;;0.77;;
26822;SDS011;14852;51.910;8.878;2023-04-24T04:08:32;3.00;;;1.20;;
26822;SDS011;14852;51.910;8.878;2023-04-24T04:10:58;3.65;;;1.17;;
26822;SDS011;14852;51.910;8.878;2023-04-24T04:13:24;1.50;;;1.10;;
26822;SDS011;14852;51.910;8.878;2023-04-24T04:15:50;1.63;;;1.20;;
26822;SDS011;14852;51.910;8.878;2023-04-24T04:18:16;1.02;;;0.95;;
26822;SDS011;14852;51.910;8.878;2023-04-24T04:20:42;2.30;;;1.42;;
26822;SDS011;14852;51.910;8.878;2023-04-24T04:23:10;2.15;;;1.25;;
26822;SDS011;14852;51.910;8.878;2023-04-24T04:25:47;1.70;;;1.10;;
26822;SDS011;14852;51.910;8.878;2023-04-24T04:28:20;1.48;;;1.00;;
26822;SDS011;14852;51.910;8.878;2023-04-24T04:30:47;2.33;;;1.17;;
26822;SDS011;14852;51.910;8.878;2023-04-24T04:33:13;1.17;;;1.05;;
26822;SDS011;14852;51.910;8.878;2023-04-24T04:35:40;1.65;;;1.10;;
26822;SDS011;14852;51.910;8.878;2023-04-24T04:38:07;2.38;;;1.10;;
26822;SDS011;14852;51.910;8.878;2023-04-24T04:40:51;1.33;;;1.23;;
26822;SDS011;14852;51.910;8.878;2023-04-24T04:43:20;1.70;;;1.50;;
26822;SDS011;14852;51.910;8.878;2023-04-24T04:45:50;1.75;;;1.30;;
26822;SDS011;14852;51.910;8.878;2023-04-24T04:48:29;1.90;;;1.60;;
26822;SDS011;14852;51.910;8.878;2023-04-24T04:50:58;2.00;;;1.50;;
26822;SDS011;14852;51.910;8.878;2023-04-24T04:53:25;1.75;;;1.23;;
26822;SDS011;14852;51.910;8.878;2023-04-24T04:55:51;1.75;;;1.30;;
26822;SDS011;14852;51.910;8.878;2023-04-24T04:58:19;1.20;;;1.10;;
26822;SDS011;14852;51.910;8.878;2023-04-24T05:00:48;1.50;;;1.15;;
26822;SDS011;14852;51.910;8.878;2023-04-24T05:03:31;2.90;;;1.52;;
26822;SDS011;14852;51.910;8.878;2023-04-24T05:06:08;1.38;;;1.13;;
26822;SDS011;14852;51.910;8.878;2023-04-24T05:08:37;1.23;;;1.13;;
26822;SDS011;14852;51.910;8.878;2023-04-24T05:11:06;1.92;;;1.45;;
26822;SDS011;14852;51.910;8.878;2023-04-24T05:13:32;1.30;;;1.20;;
26822;SDS011;14852;51.910;8.878;2023-04-24T05:15:58;1.50;;;1.38;;
26822;SDS011;14852;51.910;8.878;2023-04-24T05:18:25;1.10;;;1.00;;
26822;SDS011;14852;51.910;8.878;2023-04-24T05:20:51;1.67;;;1.20;;
26822;SDS011;14852;51.910;8.878;2023-04-24T05:23:17;1.83;;;1.58;;
26822;SDS011;14852;51.910;8.878;2023-04-24T05:25:45;2.20;;;1.90;;
26822;SDS011;14852;51.910;8.878;2023-04-24T05:28:13;3.92;;;2.35;;
26822;SDS011;14852;51.910;8.878;2023-04-24T05:30:38;4.57;;;3.92;;
26822;SDS011;14852;51.910;8.878;2023-04-24T05:33:06;5.50;;;4.43;;
26822;SDS011;14852;51.910;8.878;2023-04-24T05:35:33;6.15;;;4.60;;
26822;SDS011;14852;51.910;8.878;2023-04-24T05:38:00;7.93;;;5.72;;
26822;SDS011;14852;51.910;8.878;2023-04-24T05:40:26;6.25;;;5.40;;
26822;SDS011;14852;51.910;8.878;2023-04-24T05:42:52;6.25;;;5.65;;
26822;SDS011;14852;51.910;8.878;2023-04-24T05:45:19;8.68;;;5.72;;
26822;SDS011;14852;51.910;8.878;2023-04-24T05:47:45;7.32;;;5.32;;
26822;SDS011;14852;51.910;8.878;2023-04-24T05:50:11;7.75;;;5.70;;
26822;SDS011;14852;51.910;8.878;2023-04-24T05:52:37;5.95;;;5.35;;
26822;SDS011;14852;51.910;8.878;2023-04-24T05:55:09;7.82;;;5.75;;
26822;SDS011;14852;51.910;8.878;2023-04-24T05:57:37;8.00;;;6.82;;
26822;SDS011;14852;51.910;8.878;2023-04-24T06:00:03;7.03;;;6.32;;
26822;SDS011;14852;51.910;8.878;2023-04-24T06:02:38;6.60;;;5.78;;
26822;SDS011;14852;51.910;8.878;2023-04-24T06:05:05;7.32;;;6.55;;
26822;SDS011;14852;51.910;8.878;2023-04-24T06:07:33;7.72;;;6.28;;
26822;SDS011;14852;51.910;8.878;2023-04-24T06:10:01;7.20;;;5.97;;
26822;SDS011;14852;51.910;8.878;2023-04-24T06:12:31;7.82;;;5.90;;
26822;SDS011;14852;51.910;8.878;2023-04-24T06:15:01;6.00;;;5.03;;
26822;SDS011;14852;51.910;8.878;2023-04-24T06:17:49;5.95;;;5.10;;
26822;SDS011;14852;51.910;8.878;2023-04-24T06:20:16;5.35;;;4.65;;
26822;SDS011;14852;51.910;8.878;2023-04-24T06:22:42;8.90;;;5.05;;
26822;SDS011;14852;51.910;8.878;2023-04-24T06:25:09;5.45;;;4.45;;
26822;SDS011;14852;51.910;8.878;2023-04-24T06:27:35;5.03;;;4.13;;
26822;SDS011;14852;51.910;8.878;2023-04-24T06:30:01;6.15;;;5.03;;
26822;SDS011;14852;51.910;8.878;2023-04-24T06:32:27;6.32;;;4.80;;
26822;SDS011;14852;51.910;8.878;2023-04-24T06:34:53;6.40;;;5.32;;
26822;SDS011;14852;51.910;8.878;2023-04-24T06:37:21;5.85;;;4.80;;
26822;SDS011;14852;51.910;8.878;2023-04-24T06:39:47;7.65;;;5.78;;
26822;SDS011;14852;51.910;8.878;2023-04-24T06:42:13;6.15;;;4.03;;
26822;SDS011;14852;51.910;8.878;2023-04-24T06:44:42;6.28;;;5.68;;
26822;SDS011;14852;51.910;8.878;2023-04-24T06:47:08;7.07;;;5.03;;
26822;SDS011;14852;51.910;8.878;2023-04-24T06:49:36;6.95;;;5.03;;
26822;SDS011;14852;51.910;8.878;2023-04-24T06:52:02;5.35;;;4.40;;
26822;SDS011;14852;51.910;8.878;2023-04-24T06:54:29;5.45;;;4.95;;
26822;SDS011;14852;51.910;8.878;2023-04-24T06:56:56;5.93;;;5.32;;
26822;SDS011;14852;51.910;8.878;2023-04-24T06:59:26;6.60;;;5.60;;
26822;SDS011;14852;51.910;8.878;2023-04-24T07:01:52;7.35;;;4.97;;
26822;SDS011;14852;51.910;8.878;2023-04-24T07:04:18;6.10;;;5.10;;
26822;SDS011;14852;51.910;8.878;2023-04-24T07:06:45;6.18;;;5.07;;
26822;SDS011;14852;51.910;8.878;2023-04-24T07:09:14;5.95;;;4.75;;
26822;SDS011;14852;51.910;8.878;2023-04-24T07:11:41;7.43;;;4.68;;
26822;SDS011;14852;51.910;8.878;2023-04-24T07:14:07;6.15;;;4.75;;
26822;SDS011;14852;51.910;8.878;2023-04-24T07:16:33;6.22;;;5.40;;
26822;SDS011;14852;51.910;8.878;2023-04-24T07:18:59;5.28;;;4.57;;
26822;SDS011;14852;51.910;8.878;2023-04-24T07:21:25;4.97;;;4.32;;
26822;SDS011;14852;51.910;8.878;2023-04-24T07:23:52;4.70;;;4.20;;
26822;SDS011;14852;51.910;8.878;2023-04-24T07:26:18;4.65;;;4.20;;
26822;SDS011;14852;51.910;8.878;2023-04-24T07:28:45;4.63;;;4.13;;
26822;SDS011;14852;51.910;8.878;2023-04-24T07:31:11;5.50;;;4.05;;
26822;SDS011;14852;51.910;8.878;2023-04-24T07:33:37;7.45;;;4.18;;
26822;SDS011;14852;51.910;8.878;2023-04-24T07:36:03;5.20;;;4.10;;
26822;SDS011;14852;51.910;8.878;2023-04-24T07:38:30;5.03;;;4.15;;
26822;SDS011;14852;51.910;8.878;2023-04-24T07:40:56;5.13;;;3.95;;
26822;SDS011;14852;51.910;8.878;2023-04-24T07:43:21;4.82;;;3.88;;
26822;SDS011;14852;51.910;8.878;2023-04-24T07:45:48;4.20;;;3.65;;
26822;SDS011;14852;51.910;8.878;2023-04-24T07:48:15;4.38;;;3.58;;
26822;SDS011;14852;51.910;8.878;2023-04-24T07:50:43;4.47;;;3.33;;
26822;SDS011;14852;51.910;8.878;2023-04-24T07:53:09;5.63;;;3.47;;
26822;SDS011;14852;51.910;8.878;2023-04-24T07:55:35;4.78;;;3.55;;
26822;SDS011;14852;51.910;8.878;2023-04-24T07:58:01;4.43;;;3.47;;
26822;SDS011;14852;51.910;8.878;2023-04-24T08:00:27;4.18;;;3.00;;
26822;SDS011;14852;51.910;8.878;2023-04-24T08:02:53;4.90;;;3.60;;
26822;SDS011;14852;51.910;8.878;2023-04-24T08:05:18;6.03;;;3.38;;
26822;SDS011;14852;51.910;8.878;2023-04-24T08:07:45;5.00;;;3.30;;
26822;SDS011;14852;51.910;8.878;2023-04-24T08:10:13;3.60;;;3.30;;
26822;SDS011;14852;51.910;8.878;2023-04-24T08:12:40;4.10;;;2.95;;
26822;SDS011;14852;51.910;8.878;2023-04-24T08:15:06;3.10;;;2.80;;
26822;SDS011;14852;51.910;8.878;2023-04-24T08:17:34;3.25;;;2.95;;
26822;SDS011;14852;51.910;8.878;2023-04-24T08:20:00;9.13;;;3.47;;
26822;SDS011;14852;51.910;8.878;2023-04-24T08:22:28;3.58;;;2.88;;
26822;SDS011;14852;51.910;8.878;2023-04-24T08:24:54;4.15;;;3.40;;
26822;SDS011;14852;51.910;8.878;2023-04-24T08:29:53;3.78;;;3.30;;
26822;SDS011;14852;51.910;8.878;2023-04-24T08:32:19;3.97;;;3.58;;
26822;SDS011;14852;51.910;8.878;2023-04-24T08:34:45;3.15;;;2.85;;
26822;SDS011;14852;51.910;8.878;2023-04-24T08:37:11;3.05;;;2.58;;
26822;SDS011;14852;51.910;8.878;2023-04-24T08:39:38;5.25;;;3.20;;
26822;SDS011;14852;51.910;8.878;2023-04-24T08:42:04;4.55;;;2.95;;
26822;SDS011;14852;51.910;8.878;2023-04-24T08:44:33;4.15;;;3.10;;
26822;SDS011;14852;51.910;8.878;2023-04-24T08:47:01;3.08;;;2.35;;
26822;SDS011;14852;51.910;8.878;2023-04-24T08:49:28;4.10;;;2.60;;
26822;SDS011;14852;51.910;8.878;2023-04-24T08:51:54;2.83;;;2.33;;
26822;SDS011;14852;51.910;8.878;2023-04-24T08:54:20;3.15;;;2.63;;
26822;SDS011;14852;51.910;8.878;2023-04-24T08:56:47;3.58;;;2.60;;
26822;SDS011;14852;51.910;8.878;2023-04-24T08:59:14;4.60;;;2.33;;
26822;SDS011;14852;51.910;8.878;2023-04-24T09:01:40;3.28;;;2.50;;
26822;SDS011;14852;51.910;8.878;2023-04-24T09:04:08;3.03;;;2.30;;
26822;SDS011;14852;51.910;8.878;2023-04-24T09:06:35;2.40;;;2.00;;
26822;SDS011;14852;51.910;8.878;2023-04-24T09:09:02;3.22;;;2.58;;
26822;SDS011;14852;51.910;8.878;2023-04-24T09:11:29;3.63;;;2.20;;
26822;SDS011;14852;51.910;8.878;2023-04-24T09:13:56;3.15;;;2.22;;
26822;SDS011;14852;51.910;8.878;2023-04-24T09:16:23;4.28;;;2.40;;
26822;SDS011;14852;51.910;8.878;2023-04-24T09:18:51;3.60;;;2.50;;
26822;SDS011;14852;51.910;8.878;2023-04-24T09:21:19;4.53;;;2.00;;
26822;SDS011;14852;51.910;8.878;2023-04-24T09:23:47;2.03;;;1.80;;
26822;SDS011;14852;51.910;8.878;2023-04-24T09:26:24;3.17;;;2.10;;
26822;SDS011;14852;51.910;8.878;2023-04-24T09:28:50;3.25;;;2.10;;
26822;SDS011;14852;51.910;8.878;2023-04-24T09:31:18;2.40;;;2.03;;
26822;SDS011;14852;51.910;8.878;2023-04-24T09:33:57;2.17;;;1.85;;
26822;SDS011;14852;51.910;8.878;2023-04-24T09:36:31;3.08;;;2.33;;
26822;SDS011;14852;51.910;8.878;2023-04-24T09:39:08;4.20;;;2.90;;
26822;SDS011;14852;51.910;8.878;2023-04-24T09:41:47;1.85;;;1.73;;
26822;SDS011;14852;51.910;8.878;2023-04-24T09:44:18;3.55;;;1.85;;
26822;SDS011;14852;51.910;8.878;2023-04-24T09:46:50;1.70;;;1.60;;
26822;SDS011;14852;51.910;8.878;2023-04-24T09:49:28;2.92;;;1.45;;
26822;SDS011;14852;51.910;8.878;2023-04-24T09:52:02;1.30;;;1.15;;
26822;SDS011;14852;51.910;8.878;2023-04-24T09:54:33;2.30;;;1.40;;
26822;SDS011;14852;51.910;8.878;2023-04-24T09:57:01;3.17;;;1.40;;
26822;SDS011;14852;51.910;8.878;2023-04-24T09:59:28;1.80;;;1.45;;
26822;SDS011;14852;51.910;8.878;2023-04-24T10:01:54;3.28;;;1.60;;
26822;SDS011;14852;51.910;8.878;2023-04-24T10:04:22;1.60;;;1.50;;
26822;SDS011;14852;51.910;8.878;2023-04-24T10:06:50;2.05;;;1.38;;
26822;SDS011;14852;51.910;8.878;2023-04-24T10:09:19;1.15;;;1.05;;
26822;SDS011;14852;51.910;8.878;2023-04-24T10:11:50;1.30;;;1.20;;
26822;SDS011;14852;51.910;8.878;2023-04-24T10:14:19;0.80;;;0.70;;
26822;SDS011;14852;51.910;8.878;2023-04-24T10:16:48;0.90;;;0.88;;
26822;SDS011;14852;51.910;8.878;2023-04-24T10:19:17;1.25;;;0.73;;
26822;SDS011;14852;51.910;8.878;2023-04-24T10:21:43;0.70;;;0.70;;
26822;SDS011;14852;51.910;8.878;2023-04-24T10:24:15;0.68;;;0.40;;
26822;SDS011;14852;51.910;8.878;2023-04-24T10:26:43;0.90;;;0.90;;
26822;SDS011;14852;51.910;8.878;2023-04-24T10:29:11;1.02;;;0.90;;
26822;SDS011;14852;51.910;8.878;2023-04-24T10:31:38;1.98;;;1.02;;
26822;SDS011;14852;51.910;8.878;2023-04-24T10:34:05;0.50;;;0.50;;
26822;SDS011;14852;51.910;8.878;2023-04-24T10:36:33;0.70;;;0.50;;
26822;SDS011;14852;51.910;8.878;2023-04-24T10:39:01;0.63;;;0.52;;
26822;SDS011;14852;51.910;8.878;2023-04-24T10:41:31;0.40;;;0.40;;
26822;SDS011;14852;51.910;8.878;2023-04-24T10:44:07;0.65;;;0.45;;
26822;SDS011;14852;51.910;8.878;2023-04-24T10:46:34;0.60;;;0.60;;
26822;SDS011;14852;51.910;8.878;2023-04-24T10:49:04;0.65;;;0.65;;
26822;SDS011;14852;51.910;8.878;2023-04-24T10:51:47;0.70;;;0.52;;
26822;SDS011;14852;51.910;8.878;2023-04-24T10:59:46;0.52;;;0.52;;
26822;SDS011;14852;51.910;8.878;2023-04-24T11:02:16;1.45;;;0.30;;
26822;SDS011;14852;51.910;8.878;2023-04-24T11:04:44;0.73;;;0.70;;
26822;SDS011;14852;51.910;8.878;2023-04-24T11:07:13;0.35;;;0.35;;
26822;SDS011;14852;51.910;8.878;2023-04-24T11:09:38;0.50;;;0.50;;
26822;SDS011;14852;51.910;8.878;2023-04-24T11:12:08;0.82;;;0.70;;
26822;SDS011;14852;51.910;8.878;2023-04-24T11:17:30;1.23;;;0.95;;
26822;SDS011;14852;51.910;8.878;2023-04-24T11:20:06;0.85;;;0.70;;
26822;SDS011;14852;51.910;8.878;2023-04-24T11:22:35;2.30;;;0.73;;
26822;SDS011;14852;51.910;8.878;2023-04-24T11:25:03;0.50;;;0.50;;
26822;SDS011;14852;51.910;8.878;2023-04-24T11:27:31;1.20;;;0.88;;
26822;SDS011;14852;51.910;8.878;2023-04-24T11:30:08;0.77;;;0.77;;
26822;SDS011;14852;51.910;8.878;2023-04-24T11:32:40;0.75;;;0.75;;
26822;SDS011;14852;51.910;8.878;2023-04-24T11:35:22;0.77;;;0.77;;
26822;SDS011;14852;51.910;8.878;2023-04-24T11:37:53;0.80;;;0.80;;
26822;SDS011;14852;51.910;8.878;2023-04-24T11:40:20;1.05;;;0.95;;
26822;SDS011;14852;51.910;8.878;2023-04-24T11:42:51;1.17;;;0.95;;
26822;SDS011;14852;51.910;8.878;2023-04-24T11:45:29;1.67;;;0.98;;
26822;SDS011;14852;51.910;8.878;2023-04-24T11:47:56;2.17;;;1.23;;
26822;SDS011;14852;51.910;8.878;2023-04-24T11:50:23;1.15;;;0.90;;
26822;SDS011;14852;51.910;8.878;2023-04-24T11:52:51;2.47;;;1.10;;
26822;SDS011;14852;51.910;8.878;2023-04-24T11:57:47;2.15;;;1.08;;
26822;SDS011;14852;51.910;8.878;2023-04-24T12:00:25;1.10;;;1.00;;
26822;SDS011;14852;51.910;8.878;2023-04-24T12:03:11;1.10;;;1.00;;
26822;SDS011;14852;51.910;8.878;2023-04-24T12:05:37;1.30;;;0.90;;
26822;SDS011;14852;51.910;8.878;2023-04-24T12:08:04;0.98;;;0.98;;
26822;SDS011;14852;51.910;8.878;2023-04-24T12:10:31;0.90;;;0.90;;
26822;SDS011;14852;51.910;8.878;2023-04-24T12:12:58;1.02;;;0.93;;
26822;SDS011;14852;51.910;8.878;2023-04-24T12:15:25;1.33;;;1.20;;
26822;SDS011;14852;51.910;8.878;2023-04-24T12:17:52;1.38;;;1.00;;
26822;SDS011;14852;51.910;8.878;2023-04-24T12:20:26;1.05;;;1.00;;
26822;SDS011;14852;51.910;8.878;2023-04-24T12:22:56;1.25;;;1.15;;
26822;SDS011;14852;51.910;8.878;2023-04-24T12:25:24;1.95;;;1.08;;
26822;SDS011;14852;51.910;8.878;2023-04-24T12:27:53;1.00;;;1.00;;
26822;SDS011;14852;51.910;8.878;2023-04-24T12:30:41;1.30;;;1.20;;
26822;SDS011;14852;51.910;8.878;2023-04-24T12:33:16;1.15;;;1.00;;
26822;SDS011;14852;51.910;8.878;2023-04-24T12:35:48;1.17;;;1.08;;
26822;SDS011;14852;51.910;8.878;2023-04-24T12:38:21;1.33;;;1.10;;
26822;SDS011;14852;51.910;8.878;2023-04-24T12:41:00;1.42;;;1.20;;
26822;SDS011;14852;51.910;8.878;2023-04-24T12:43:35;0.80;;;0.80;;
26822;SDS011;14852;51.910;8.878;2023-04-24T12:46:02;1.20;;;1.00;;
26822;SDS011;14852;51.910;8.878;2023-04-24T12:48:29;1.33;;;1.23;;
26822;SDS011;14852;51.910;8.878;2023-04-24T13:15:30;3.08;;;1.55;;
26822;SDS011;14852;51.910;8.878;2023-04-24T13:17:58;2.72;;;2.00;;
26822;SDS011;14852;51.910;8.878;2023-04-24T13:20:24;3.22;;;1.92;;
26822;SDS011;14852;51.910;8.878;2023-04-24T13:22:51;2.80;;;2.10;;
26822;SDS011;14852;51.910;8.878;2023-04-24T13:25:30;2.45;;;2.00;;
26822;SDS011;14852;51.910;8.878;2023-04-24T13:28:02;2.10;;;1.80;;
26822;SDS011;14852;51.910;8.878;2023-04-24T13:30:28;2.75;;;1.48;;
26822;SDS011;14852;51.910;8.878;2023-04-24T13:32:56;3.42;;;2.33;;
26822;SDS011;14852;51.910;8.878;2023-04-24T13:35:27;2.28;;;1.83;;
26822;SDS011;14852;51.910;8.878;2023-04-24T13:37:56;3.75;;;1.85;;
26822;SDS011;14852;51.910;8.878;2023-04-24T13:40:22;2.90;;;1.77;;
26822;SDS011;14852;51.910;8.878;2023-04-24T13:42:49;3.03;;;2.35;;
26822;SDS011;14852;51.910;8.878;2023-04-24T13:45:15;3.40;;;2.25;;
26822;SDS011;14852;51.910;8.878;2023-04-24T13:47:41;2.45;;;1.92;;
26822;SDS011;14852;51.910;8.878;2023-04-24T13:50:08;6.63;;;3.45;;
26822;SDS011;14852;51.910;8.878;2023-04-24T13:52:37;3.22;;;2.40;;
26822;SDS011;14852;51.910;8.878;2023-04-24T13:55:03;4.65;;;3.20;;
26822;SDS011;14852;51.910;8.878;2023-04-24T13:57:32;5.10;;;3.20;;
26822;SDS011;14852;51.910;8.878;2023-04-24T14:00:03;5.07;;;3.90;;
26822;SDS011;14852;51.910;8.878;2023-04-24T14:02:37;5.70;;;3.53;;
26822;SDS011;14852;51.910;8.878;2023-04-24T14:05:03;8.43;;;3.20;;
26822;SDS011;14852;51.910;8.878;2023-04-24T14:07:30;8.73;;;3.67;;
26822;SDS011;14852;51.910;8.878;2023-04-24T14:09:59;4.72;;;3.30;;
26822;SDS011;14852;51.910;8.878;2023-04-24T14:12:25;5.18;;;3.40;;
26822;SDS011;14852;51.910;8.878;2023-04-24T14:14:56;6.22;;;3.38;;
26822;SDS011;14852;51.910;8.878;2023-04-24T14:17:25;8.02;;;4.35;;
26822;SDS011;14852;51.910;8.878;2023-04-24T14:19:56;5.90;;;4.18;;
26822;SDS011;14852;51.910;8.878;2023-04-24T14:22:24;7.15;;;3.38;;
26822;SDS011;14852;51.910;8.878;2023-04-24T14:24:53;11.05;;;3.85;;
26822;SDS011;14852;51.910;8.878;2023-04-24T14:27:19;9.10;;;3.92;;
26822;SDS011;14852;51.910;8.878;2023-04-24T14:29:51;6.05;;;4.15;;
26822;SDS011;14852;51.910;8.878;2023-04-24T14:32:23;7.75;;;3.70;;
26822;SDS011;14852;51.910;8.878;2023-04-24T14:34:49;7.97;;;4.13;;
26822;SDS011;14852;51.910;8.878;2023-04-24T14:37:18;6.55;;;4.55;;
26822;SDS011;14852;51.910;8.878;2023-04-24T14:39:45;5.75;;;4.00;;
26822;SDS011;14852;51.910;8.878;2023-04-24T14:42:11;4.70;;;3.70;;
26822;SDS011;14852;51.910;8.878;2023-04-24T14:44:39;7.10;;;3.95;;
26822;SDS011;14852;51.910;8.878;2023-04-24T14:47:07;4.80;;;3.80;;
26822;SDS011;14852;51.910;8.878;2023-04-24T14:49:36;5.38;;;3.75;;
26822;SDS011;14852;51.910;8.878;2023-04-24T14:52:02;7.05;;;3.60;;
26822;SDS011;14852;51.910;8.878;2023-04-24T14:54:31;7.47;;;4.00;;
26822;SDS011;14852;51.910;8.878;2023-04-24T14:56:57;9.07;;;4.43;;
26822;SDS011;14852;51.910;8.878;2023-04-24T14:59:25;9.95;;;4.93;;
26822;SDS011;14852;51.910;8.878;2023-04-24T15:01:57;7.40;;;4.05;;
26822;SDS011;14852;51.910;8.878;2023-04-24T15:04:23;6.03;;;3.40;;
26822;SDS011;14852;51.910;8.878;2023-04-24T15:06:52;6.55;;;4.25;;
26822;SDS011;14852;51.910;8.878;2023-04-24T15:09:22;4.15;;;3.10;;
26822;SDS011;14852;51.910;8.878;2023-04-24T15:11:50;7.97;;;3.67;;
26822;SDS011;14852;51.910;8.878;2023-04-24T15:14:17;5.72;;;3.45;;
26822;SDS011;14852;51.910;8.878;2023-04-24T15:16:43;3.75;;;3.28;;
26822;SDS011;14852;51.910;8.878;2023-04-24T15:19:10;7.05;;;3.35;;
26822;SDS011;14852;51.910;8.878;2023-04-24T15:21:36;5.93;;;3.15;;
26822;SDS011;14852;51.910;8.878;2023-04-24T15:24:03;9.07;;;3.67;;
26822;SDS011;14852;51.910;8.878;2023-04-24T15:26:29;6.55;;;3.05;;
26822;SDS011;14852;51.910;8.878;2023-04-24T15:28:56;4.20;;;2.70;;
26822;SDS011;14852;51.910;8.878;2023-04-24T15:31:27;4.18;;;2.78;;